createdAt,value
2019-04-20T00:00:56.426Z,78.54
2019-04-20T00:03:34.384Z,78.69
2019-04-20T00:05:55.264Z,78.64
2019-04-20T00:08:27.887Z,78.40
2019-04-20T00:11:02.683Z,78.82
2019-04-20T00:13:38.402Z,78.73
2019-04-20T00:15:55.774Z,78.85
2019-04-20T00:18:28.058Z,80.14
2019-04-20T00:21:00.287Z,79.83
2019-04-20T00:23:40.440Z,79.96
2019-04-20T00:26:27.334Z,80.05
2019-04-20T00:29:06.880Z,81.03
2019-04-20T00:31:35.114Z,80.28
2019-04-20T00:33:59.416Z,81.04
2019-04-20T00:36:20.181Z,81.47
2019-04-20T00:38:53.430Z,81.60
2019-04-20T00:41:21.261Z,81.62
2019-04-20T00:43:49.678Z,82.34
2019-04-20T00:46:26.370Z,81.81
2019-04-20T00:48:55.868Z,81.41
2019-04-20T00:51:35.090Z,81.49
2019-04-20T00:53:52.309Z,81.90
2019-04-20T00:56:20.235Z,82.23
2019-04-20T00:59:03.032Z,81.99
2019-04-20T01:01:42.464Z,81.91
2019-04-20T01:04:10.434Z,82.31
2019-04-20T01:06:56.383Z,82.61
2019-04-20T01:09:16.038Z,82.35
2019-04-20T01:11:47.764Z,81.98
2019-04-20T01:14:17.354Z,82.14
2019-04-20T01:16:53.897Z,83.27
2019-04-20T01:19:15.975Z,82.87
2019-04-20T01:21:54.904Z,82.61
2019-04-20T01:24:23.940Z,83.00
2019-04-20T01:26:50.545Z,82.77
2019-04-20T01:29:25.864Z,82.85
2019-04-20T01:32:02.316Z,83.28
2019-04-20T01:34:34.534Z,83.26
2019-04-20T01:37:05.632Z,84.18
2019-04-20T01:39:27.610Z,83.59
2019-04-20T01:41:49.568Z,83.76
2019-04-20T01:44:29.335Z,82.58
2019-04-20T01:46:54.189Z,83.61
2019-04-20T01:49:23.824Z,83.99
2019-04-20T01:51:57.420Z,83.38
2019-04-20T01:54:42.153Z,83.43
2019-04-20T01:57:03.102Z,83.96
2019-04-20T01:59:34.752Z,84.42
2019-04-20T02:02:13.150Z,84.33
2019-04-20T02:04:43.545Z,84.32
2019-04-20T02:07:10.210Z,84.33
2019-04-20T02:09:47.497Z,84.89
2019-04-20T02:12:15.696Z,85.17
2019-04-20T02:14:46.279Z,85.18
2019-04-20T02:17:21.473Z,85.31
2019-04-20T02:20:00.714Z,85.38
2019-04-20T02:22:30.037Z,84.87
2019-04-20T02:24:41.047Z,84.94
2019-04-20T02:27:10.340Z,84.74
2019-04-20T02:30:02.531Z,85.07
2019-04-20T02:32:40.566Z,84.46
2019-04-20T02:35:16.448Z,84.68
2019-04-20T02:45:38.806Z,85.56
2019-04-20T02:50:30.175Z,85.48
2019-04-20T02:53:04.588Z,86.03
2019-04-20T03:00:28.783Z,86.26
2019-04-20T03:02:43.055Z,86.08
2019-04-20T03:05:15.228Z,86.47
2019-04-20T03:07:50.343Z,85.98
2019-04-20T03:10:17.297Z,86.29
2019-04-20T03:12:50.552Z,86.41
2019-04-20T03:15:21.842Z,86.46
2019-04-20T03:17:51.246Z,86.39
2019-04-20T03:20:23.074Z,87.23
2019-04-20T03:23:11.649Z,87.09
2019-04-20T03:25:24.183Z,86.96
2019-04-20T03:27:51.897Z,88.20
2019-04-20T03:33:35.079Z,88.50
2019-04-20T03:35:52.847Z,88.85
2019-04-20T03:38:14.484Z,87.90
2019-04-20T03:40:37.417Z,87.83
2019-04-20T03:42:54.815Z,87.75
2019-04-20T03:45:25.404Z,87.07
2019-04-20T03:48:08.326Z,86.77
2019-04-20T03:50:48.845Z,86.98
2019-04-20T03:53:18.091Z,87.76
2019-04-20T03:55:44.564Z,87.85
2019-04-20T03:58:24.212Z,87.40
2019-04-20T04:00:59.931Z,87.49
2019-04-20T04:03:47.013Z,87.40
2019-04-20T04:06:03.080Z,86.99
2019-04-20T04:08:27.760Z,87.24
2019-04-20T04:11:12.362Z,88.26
2019-04-20T04:13:22.931Z,89.00
2019-04-20T04:15:57.518Z,88.62
2019-04-20T04:18:29.703Z,87.40
2019-04-20T04:21:01.069Z,89.36
2019-04-20T04:23:40.349Z,89.10
2019-04-20T04:26:08.595Z,88.44
2019-04-20T04:28:37.282Z,88.09
2019-04-20T04:31:12.012Z,88.50
2019-04-20T04:36:10.534Z,88.27
2019-04-20T04:38:51.731Z,88.74
2019-04-20T04:41:19.579Z,88.24
2019-04-20T04:43:48.334Z,88.43
2019-04-20T04:45:55.681Z,88.29
2019-04-20T04:48:31.289Z,88.74
2019-04-20T04:50:59.849Z,88.32
2019-04-20T04:53:38.772Z,88.14
2019-04-20T04:56:02.735Z,88.28
2019-04-20T04:58:25.682Z,88.02
2019-04-20T05:01:01.390Z,87.83
2019-04-20T05:03:41.304Z,88.18
2019-04-20T05:06:19.693Z,87.76
2019-04-20T05:08:36.620Z,87.86
2019-04-20T05:11:00.675Z,87.98
2019-04-20T05:13:37.035Z,86.94
2019-04-20T05:16:13.411Z,85.17
2019-04-20T05:18:57.918Z,82.57
2019-04-20T05:21:20.763Z,80.12
2019-04-20T05:23:49.172Z,78.38
2019-04-20T05:26:30.000Z,75.92
2019-04-20T05:28:49.508Z,74.71
2019-04-20T05:31:11.571Z,73.01
2019-04-20T05:34:06.776Z,72.29
2019-04-20T05:36:29.602Z,71.28
2019-04-20T05:39:11.690Z,70.71
2019-04-20T05:41:29.860Z,69.95
2019-04-20T05:44:03.848Z,69.30
2019-04-20T05:46:36.235Z,69.35
2019-04-20T05:49:13.500Z,69.19
2019-04-20T05:54:08.087Z,68.71
2019-04-20T05:56:40.285Z,69.56
2019-04-20T05:59:07.631Z,69.45
2019-04-20T06:01:40.795Z,68.64
2019-04-20T06:04:03.052Z,70.13
2019-04-20T06:06:43.349Z,69.11
2019-04-20T06:09:12.031Z,69.34
2019-04-20T06:11:50.096Z,70.12
2019-04-20T06:14:05.847Z,70.63
2019-04-20T06:16:55.760Z,70.75
2019-04-20T06:19:35.910Z,70.42
2019-04-20T06:21:57.562Z,70.82
2019-04-20T06:24:36.341Z,71.43
2019-04-20T06:27:01.814Z,71.46
2019-04-20T06:29:23.627Z,69.64
2019-04-20T06:31:59.243Z,69.35
2019-04-20T06:36:57.124Z,70.02
2019-04-20T06:39:45.102Z,68.31
2019-04-20T06:44:34.298Z,67.83
2019-04-20T06:47:11.586Z,67.21
2019-04-20T06:49:36.771Z,67.47
2019-04-20T06:52:16.596Z,68.20
2019-04-20T06:54:46.140Z,69.21
2019-04-20T06:57:14.452Z,68.90
2019-04-20T06:59:43.111Z,68.43
2019-04-20T07:02:22.276Z,67.67
2019-04-20T07:04:52.087Z,65.10
2019-04-20T07:07:14.359Z,64.72
2019-04-20T07:09:55.662Z,65.06
2019-04-20T07:12:14.342Z,66.05
2019-04-20T07:14:36.653Z,66.16
2019-04-20T07:17:33.432Z,66.37
2019-04-20T07:19:50.050Z,65.88
2019-04-20T07:24:57.785Z,67.20
2019-04-20T07:27:25.912Z,67.12
2019-04-20T07:30:00.550Z,65.59
2019-04-20T07:32:19.101Z,65.81
2019-04-20T07:34:56.694Z,66.06
2019-04-20T07:40:07.386Z,64.76
2019-04-20T07:42:37.447Z,64.68
2019-04-20T07:45:08.780Z,64.51
2019-04-20T07:47:40.382Z,64.38
2019-04-20T07:50:02.414Z,65.06
2019-04-20T07:52:12.340Z,65.05
2019-04-20T07:55:18.825Z,64.40
2019-04-20T07:57:30.745Z,63.92
2019-04-20T08:00:00.386Z,63.32
2019-04-20T08:02:36.565Z,64.08
2019-04-20T08:04:59.498Z,64.21
2019-04-20T08:07:17.526Z,63.76
2019-04-20T08:09:54.428Z,63.79
2019-04-20T08:12:49.949Z,62.73
2019-04-20T08:15:27.113Z,61.89
2019-04-20T08:17:52.531Z,61.06
2019-04-20T08:20:17.536Z,60.98
2019-04-20T08:22:47.549Z,59.80
2019-04-20T08:25:12.639Z,58.03
2019-04-20T08:27:27.635Z,57.50
2019-04-20T08:30:20.527Z,45.19
2019-04-20T08:32:58.570Z,44.46
2019-04-20T08:35:39.777Z,44.04
2019-04-20T08:38:32.552Z,43.42
2019-04-20T08:40:40.008Z,43.91
2019-04-20T08:45:43.036Z,42.22
2019-04-20T08:48:12.819Z,43.11
2019-04-20T08:50:41.285Z,42.83
2019-04-20T08:55:40.050Z,42.07
2019-04-20T08:57:51.790Z,40.53
2019-04-20T09:00:29.670Z,40.63
2019-04-20T09:02:57.856Z,40.57
2019-04-20T09:05:34.885Z,40.79
2019-04-20T09:08:02.507Z,40.79
2019-04-20T09:10:43.914Z,39.90
2019-04-20T09:13:07.421Z,40.22
2019-04-20T09:15:23.706Z,40.44
2019-04-20T09:18:00.588Z,40.58
2019-04-20T09:20:38.453Z,41.03
2019-04-20T09:23:18.352Z,40.48
2019-04-20T09:28:14.576Z,39.43
2019-04-20T09:30:45.505Z,39.02
2019-04-20T09:33:41.398Z,39.39
2019-04-20T09:36:09.690Z,39.63
2019-04-20T09:38:42.990Z,39.77
2019-04-20T09:41:22.001Z,40.10
2019-04-20T09:43:34.731Z,40.30
2019-04-20T09:46:06.651Z,40.29
2019-04-20T09:48:42.005Z,40.25
2019-04-20T09:51:25.829Z,39.37
2019-04-20T09:53:47.479Z,39.39
2019-04-20T09:56:19.643Z,39.26
2019-04-20T09:58:54.931Z,40.31
2019-04-20T10:01:15.616Z,39.76
2019-04-20T10:03:36.581Z,39.28
2019-04-20T10:06:05.616Z,38.15
2019-04-20T10:08:43.529Z,38.77
2019-04-20T10:11:05.688Z,38.50
2019-04-20T10:13:34.419Z,38.46
2019-04-20T10:16:03.824Z,37.63
2019-04-20T10:18:34.217Z,37.41
2019-04-20T10:21:02.857Z,38.49
2019-04-20T10:23:32.463Z,39.41
2019-04-20T10:26:01.062Z,37.64
2019-04-20T10:28:29.815Z,38.80
2019-04-20T10:30:58.955Z,39.03
2019-04-20T10:33:29.270Z,38.14
2019-04-20T10:35:59.318Z,38.39
2019-04-20T10:38:32.866Z,39.21
2019-04-20T10:41:09.508Z,38.99
2019-04-20T10:43:30.284Z,38.69
2019-04-20T10:45:59.016Z,39.70
2019-04-20T10:48:32.028Z,38.45
2019-04-20T10:50:59.044Z,39.70
2019-04-20T10:53:27.977Z,38.87
2019-04-20T10:55:57.774Z,38.40
2019-04-20T10:58:27.453Z,39.34
2019-04-20T11:00:56.049Z,37.53
2019-04-20T11:03:24.871Z,37.11
2019-04-20T11:05:53.934Z,36.36
2019-04-20T11:08:22.533Z,35.75
2019-04-20T11:11:05.149Z,38.05
2019-04-20T11:13:21.541Z,37.88
2019-04-20T11:15:50.551Z,36.12
2019-04-20T11:18:19.641Z,35.43
2019-04-20T11:20:49.098Z,36.15
2019-04-20T11:23:18.196Z,34.95
2019-04-20T11:25:48.270Z,35.63
2019-04-20T11:28:16.859Z,35.57
2019-04-20T11:30:46.084Z,35.24
2019-04-20T11:33:16.005Z,35.68
2019-04-20T11:35:46.199Z,33.51
2019-04-20T11:38:17.125Z,34.99
2019-04-20T11:40:45.155Z,33.07
2019-04-20T11:43:13.739Z,32.26
2019-04-20T11:45:42.693Z,32.25
2019-04-20T11:48:11.676Z,32.79
2019-04-20T11:50:40.410Z,29.40
2019-04-20T11:53:09.147Z,31.59
2019-04-20T11:55:38.211Z,31.47
2019-04-20T11:58:08.093Z,31.16
2019-04-20T12:00:58.582Z,30.90
2019-04-20T12:03:28.134Z,31.00
2019-04-20T12:05:55.758Z,31.49
2019-04-20T12:08:22.973Z,32.33
2019-04-20T12:10:56.695Z,32.24
2019-04-20T12:13:22.639Z,31.65
2019-04-20T12:15:51.844Z,32.32
2019-04-20T12:18:20.637Z,28.21
2019-04-20T12:20:50.370Z,30.25
2019-04-20T12:23:20.122Z,31.54
2019-04-20T12:25:50.092Z,29.28
2019-04-20T12:28:19.846Z,26.86
2019-04-20T12:30:48.574Z,28.33
2019-04-20T12:33:17.799Z,27.30
2019-04-20T12:35:46.325Z,29.42
2019-04-20T12:38:14.971Z,28.22
2019-04-20T12:40:44.058Z,28.73
2019-04-20T12:43:13.233Z,28.14
2019-04-20T12:45:42.124Z,28.34
2019-04-20T12:48:11.424Z,26.92
2019-04-20T12:50:41.459Z,28.08
2019-04-20T12:53:10.666Z,28.65
2019-04-20T12:55:40.829Z,29.07
2019-04-20T12:58:10.522Z,27.83
2019-04-20T13:00:49.749Z,27.22
2019-04-20T13:03:19.337Z,27.48
2019-04-20T13:05:48.241Z,28.51
2019-04-20T13:08:23.242Z,26.84
2019-04-20T13:10:49.025Z,27.80
2019-04-20T13:13:28.496Z,26.63
2019-04-20T13:16:16.709Z,27.58
2019-04-20T13:18:55.634Z,27.51
2019-04-20T13:21:25.046Z,26.18
2019-04-20T13:23:53.623Z,25.91
2019-04-20T13:26:22.695Z,25.84
2019-04-20T13:28:51.188Z,25.78
2019-04-20T13:31:19.997Z,25.52
2019-04-20T13:33:57.258Z,24.91
2019-04-20T13:36:26.183Z,24.35
2019-04-20T13:38:55.093Z,25.00
2019-04-20T13:41:24.846Z,25.72
2019-04-20T13:43:56.080Z,25.92
2019-04-20T13:46:24.831Z,28.10
2019-04-20T13:48:53.579Z,25.86
2019-04-20T13:51:23.036Z,26.61
2019-04-20T13:53:53.131Z,25.48
2019-04-20T13:56:23.777Z,26.47
2019-04-20T13:58:54.023Z,25.42
2019-04-20T14:01:36.992Z,26.56
2019-04-20T14:04:20.620Z,26.39
2019-04-20T14:06:51.186Z,26.33
2019-04-20T14:09:21.250Z,26.96
2019-04-20T14:11:49.971Z,26.89
2019-04-20T14:14:19.239Z,27.31
2019-04-20T14:16:47.875Z,26.45
2019-04-20T14:19:18.962Z,28.74
2019-04-20T14:21:48.127Z,27.49
2019-04-20T14:24:17.283Z,28.46
2019-04-20T14:26:45.928Z,26.95
2019-04-20T14:29:14.837Z,26.87
2019-04-20T14:31:43.833Z,26.27
2019-04-20T14:34:13.043Z,27.10
2019-04-20T14:36:41.875Z,27.49
2019-04-20T14:39:10.402Z,25.83
2019-04-20T14:41:40.213Z,25.06
2019-04-20T14:44:10.009Z,25.67
2019-04-20T14:46:39.846Z,25.84
2019-04-20T14:49:08.453Z,25.29
2019-04-20T14:51:37.514Z,24.86
2019-04-20T14:54:07.422Z,25.04
2019-04-20T14:56:36.041Z,26.28
2019-04-20T14:59:19.892Z,24.40
2019-04-20T15:01:54.358Z,25.05
2019-04-20T15:04:25.064Z,25.79
2019-04-20T15:06:54.747Z,25.15
2019-04-20T15:09:24.606Z,25.11
2019-04-20T15:11:54.749Z,25.43
2019-04-20T15:14:24.770Z,24.84
2019-04-20T15:16:53.447Z,24.60
2019-04-20T15:19:23.673Z,26.31
2019-04-20T15:21:57.731Z,26.45
2019-04-20T15:24:27.352Z,24.69
2019-04-20T15:26:56.439Z,25.17
2019-04-20T15:29:26.336Z,24.83
2019-04-20T15:31:56.401Z,25.21
2019-04-20T15:34:26.677Z,24.36
2019-04-20T15:36:55.977Z,25.95
2019-04-20T15:39:25.251Z,25.16
2019-04-20T15:41:53.806Z,25.26
2019-04-20T15:44:22.331Z,25.76
2019-04-20T15:46:51.113Z,25.71
2019-04-20T15:49:19.894Z,25.55
2019-04-20T15:51:49.968Z,25.56
2019-04-20T15:54:19.748Z,24.42
2019-04-20T15:56:55.621Z,23.47
2019-04-20T15:59:18.483Z,24.21
2019-04-20T16:01:49.281Z,25.71
2019-04-20T16:04:39.432Z,24.27
2019-04-20T16:07:08.400Z,24.48
2019-04-20T16:09:36.247Z,24.57
2019-04-20T16:12:04.821Z,27.34
2019-04-20T16:14:33.457Z,23.35
2019-04-20T16:17:04.101Z,23.83
2019-04-20T16:19:41.808Z,23.40
2019-04-20T16:22:03.700Z,23.91
2019-04-20T16:24:44.825Z,23.82
2019-04-20T16:27:18.083Z,24.12
2019-04-20T16:29:47.376Z,24.86
2019-04-20T16:32:16.516Z,25.80
2019-04-20T16:34:46.417Z,24.39
2019-04-20T16:37:15.067Z,26.30
2019-04-20T16:39:43.643Z,26.42
2019-04-20T16:42:14.136Z,26.04
2019-04-20T16:44:43.133Z,27.05
2019-04-20T16:47:12.312Z,28.33
2019-04-20T16:49:41.181Z,27.02
2019-04-20T16:52:10.571Z,26.95
2019-04-20T16:54:39.805Z,27.34
2019-04-20T16:57:12.244Z,28.27
2019-04-20T16:59:43.938Z,27.02
2019-04-20T17:02:08.992Z,28.88
2019-04-20T17:04:37.577Z,28.84
2019-04-20T17:07:10.380Z,29.07
2019-04-20T17:09:39.855Z,29.71
2019-04-20T17:12:09.905Z,29.76
2019-04-20T17:14:39.801Z,30.14
2019-04-20T17:17:09.468Z,31.09
2019-04-20T17:19:38.049Z,30.36
2019-04-20T17:22:07.525Z,28.63
2019-04-20T17:24:37.588Z,29.72
2019-04-20T17:27:26.702Z,30.43
2019-04-20T17:30:03.218Z,31.68
2019-04-20T17:32:33.765Z,33.23
2019-04-20T17:35:18.037Z,34.85
2019-04-20T17:37:39.119Z,36.10
2019-04-20T17:40:26.447Z,35.41
2019-04-20T17:42:48.966Z,36.15
2019-04-20T17:45:11.348Z,34.94
2019-04-20T17:47:51.269Z,35.91
2019-04-20T17:50:29.403Z,36.35
2019-04-20T17:52:55.237Z,37.65
2019-04-20T17:55:24.640Z,38.42
2019-04-20T17:57:47.013Z,39.26
2019-04-20T18:00:29.073Z,39.79
2019-04-20T18:03:38.076Z,40.39
2019-04-20T18:06:04.697Z,40.82
2019-04-20T18:08:31.116Z,41.06
2019-04-20T18:10:57.011Z,40.62
2019-04-20T18:13:21.656Z,41.56
2019-04-20T18:16:04.969Z,42.45
2019-04-20T18:18:35.300Z,42.82
2019-04-20T18:20:54.848Z,45.23
2019-04-20T18:23:29.342Z,43.75
2019-04-20T18:26:13.237Z,43.89
2019-04-20T18:28:40.127Z,43.17
2019-04-20T18:31:04.456Z,42.60
2019-04-20T18:33:35.664Z,42.12
2019-04-20T18:36:05.853Z,43.65
2019-04-20T18:38:39.306Z,44.63
2019-04-20T18:41:09.311Z,46.00
2019-04-20T18:43:43.905Z,46.76
2019-04-20T18:46:24.828Z,46.88
2019-04-20T18:48:54.310Z,46.66
2019-04-20T18:51:07.883Z,46.74
2019-04-20T18:53:42.717Z,45.02
2019-04-20T18:56:08.127Z,47.41
2019-04-20T18:58:37.561Z,48.46
2019-04-20T19:01:07.514Z,48.40
2019-04-20T19:03:41.821Z,49.31
2019-04-20T19:06:07.774Z,49.25
2019-04-20T19:08:40.405Z,49.28
2019-04-20T19:11:13.171Z,48.72
2019-04-20T19:13:58.002Z,48.96
2019-04-20T19:16:35.598Z,48.73
2019-04-20T19:19:19.842Z,49.26
2019-04-20T19:21:37.414Z,48.94
2019-04-20T19:24:12.182Z,48.77
2019-04-20T19:26:38.407Z,48.50
2019-04-20T19:29:14.025Z,49.25
2019-04-20T19:31:49.949Z,49.32
2019-04-20T19:34:26.016Z,49.93
2019-04-20T19:36:47.423Z,49.66
2019-04-20T19:39:21.384Z,48.58
2019-04-20T19:41:49.167Z,48.77
2019-04-20T19:44:20.498Z,49.81
2019-04-20T19:47:01.621Z,49.65
2019-04-20T19:49:22.968Z,51.09
2019-04-20T19:52:13.636Z,51.27
2019-04-20T19:54:30.226Z,51.20
2019-04-20T19:56:54.073Z,52.87
2019-04-20T19:59:23.268Z,53.34
2019-04-20T20:01:42.059Z,54.62
2019-04-20T20:04:11.915Z,55.30
2019-04-20T20:06:47.096Z,55.50
2019-04-20T20:09:14.334Z,56.79
2019-04-20T20:11:44.388Z,57.76
2019-04-20T20:14:13.570Z,58.21
2019-04-20T20:16:58.886Z,57.43
2019-04-20T20:19:29.427Z,56.48
2019-04-20T20:21:59.016Z,57.24
2019-04-20T20:24:16.035Z,55.48
2019-04-20T20:26:51.049Z,57.77
2019-04-20T20:29:23.187Z,57.85
2019-04-20T20:32:02.298Z,57.96
2019-04-20T20:34:24.746Z,59.61
2019-04-20T20:36:53.983Z,59.60
2019-04-20T20:39:21.347Z,60.24
2019-04-20T20:41:59.361Z,59.62
2019-04-20T20:44:28.696Z,59.04
2019-04-20T20:47:00.756Z,59.97
2019-04-20T20:49:33.005Z,59.54
2019-04-20T20:52:09.847Z,59.29
2019-04-20T20:54:29.568Z,59.50
2019-04-20T20:56:55.576Z,58.62
2019-04-20T20:59:30.204Z,58.62
2019-04-20T21:01:54.126Z,57.43
2019-04-20T21:04:17.887Z,53.05
2019-04-20T21:06:46.614Z,49.10
2019-04-20T21:09:16.527Z,49.21
2019-04-20T21:11:46.358Z,50.05
2019-04-20T21:14:21.041Z,51.96
2019-04-20T21:16:52.252Z,50.97
2019-04-20T21:19:28.569Z,52.90
2019-04-20T21:21:55.715Z,54.48
2019-04-20T21:24:19.640Z,55.22
2019-04-20T21:26:47.793Z,52.35
2019-04-20T21:29:20.491Z,51.49
2019-04-20T21:31:55.623Z,50.57
2019-04-20T21:34:19.880Z,48.39
2019-04-20T21:36:47.297Z,47.50
2019-04-20T21:39:26.247Z,47.75
2019-04-20T21:41:52.003Z,47.82
2019-04-20T21:44:21.819Z,47.51
2019-04-20T21:46:51.217Z,47.44
2019-04-20T21:49:30.716Z,47.64
2019-04-20T21:51:55.407Z,49.67
2019-04-20T21:54:18.245Z,50.53
2019-04-20T21:56:55.053Z,50.80
2019-04-20T21:59:24.121Z,49.24
2019-04-20T22:01:55.225Z,48.95
2019-04-20T22:04:20.965Z,48.95
2019-04-20T22:06:50.167Z,48.40
2019-04-20T22:09:20.337Z,48.21
2019-04-20T22:11:49.748Z,49.04
2019-04-20T22:14:22.117Z,49.08
2019-04-20T22:16:51.637Z,47.57
2019-04-20T22:19:33.668Z,47.46
2019-04-20T22:22:00.570Z,46.74
2019-04-20T22:24:35.497Z,46.75
2019-04-20T22:40:25.061Z,51.09
2019-04-20T22:42:54.370Z,51.83
2019-04-20T22:45:21.249Z,53.37
2019-04-20T22:47:54.980Z,52.90
2019-04-20T22:50:33.592Z,53.44
2019-04-20T22:52:59.663Z,54.20
2019-04-20T22:55:45.476Z,55.98
2019-04-20T22:58:02.362Z,57.00
2019-04-20T23:00:31.191Z,56.58
2019-04-20T23:02:52.257Z,56.28
2019-04-20T23:05:20.760Z,56.77
2019-04-20T23:07:50.510Z,57.58
2019-04-20T23:10:30.453Z,57.62
2019-04-20T23:12:53.303Z,58.90
2019-04-20T23:15:20.514Z,58.31
2019-04-20T23:17:52.111Z,57.49
2019-04-20T23:20:25.265Z,60.31
2019-04-20T23:22:51.310Z,60.71
2019-04-20T23:25:20.952Z,60.20
2019-04-20T23:27:51.251Z,60.57
2019-04-20T23:30:25.397Z,59.51
2019-04-20T23:32:51.472Z,59.03
2019-04-20T23:35:24.519Z,60.10
2019-04-20T23:37:50.813Z,59.04
2019-04-20T23:40:19.635Z,58.90
2019-04-20T23:43:02.134Z,59.80
2019-04-20T23:45:40.479Z,60.58
2019-04-20T23:55:17.004Z,57.69
2019-04-20T23:57:45.971Z,57.81
